Uasc Al Khor — D5IS4 — position and weather

sailwx.info

Track history (hours):
 
Tides and Currents Weather Stations Pressure Air Temp Water Temp Dewpoint Dewpoint Depression Visibility Wind Speed Wind Dir Waves Ship Positions

Uasc Al Khor

Last reported at 2018-Feb-18 14:12 UTC. Time now 2018-Feb-26 00:00 UTC.
Position S 23°05' W 042°12'.

Length 300 m; draft 12.7 m.

Type: Ship (hazmat cat A). MMSI: 636016983.

Date/timePositionNaut miles runAvg speedWind from/ knotsBaromVisibWave heightAir tempDewpointWater temp
2018-Feb-18 14:12S 23°05' W 042°12'917.6
2018-Feb-18 13:41S 23°04' W 042°22'317.6
2018-Feb-18 13:30S 23°04' W 042°25'917.9
2018-Feb-18 13:00S 23°04' W 042°35'1018.1
2018-Feb-18 12:27S 23°04' W 042°46'818.8
2018-Feb-18 12:00S 23°03' W 042°55'917.7
2018-Feb-18 11:30S 23°02' W 043°04'611.7
2018-Feb-18 11:00S 22°58' W 043°09'5 9.0
2018-Feb-18 10:29S 22°53' W 043°10'2 4.2
2018-Feb-18 10:00S 22°53' W 043°12'0 0.8
2018-Feb-18 09:30S 22°53' W 043°12'0 0.0
2018-Feb-18 09:00S 22°53' W 043°12'0 0.0
2018-Feb-18 08:30S 22°53' W 043°12'0 0.0
2018-Feb-18 08:00S 22°53' W 043°12'0 0.0
2018-Feb-18 07:30S 22°53' W 043°12'0 0.0
2018-Feb-18 07:00S 22°53' W 043°12'0 0.0
2018-Feb-18 06:30S 22°53' W 043°12'0 0.0
2018-Feb-18 06:00S 22°53' W 043°12'0 0.0
2018-Feb-18 05:30S 22°53' W 043°12'0 0.0
2018-Feb-18 05:00S 22°53' W 043°12'0 0.0
2018-Feb-18 04:30S 22°53' W 043°12'0 0.0
2018-Feb-18 04:00S 22°53' W 043°12'0 0.0
2018-Feb-18 03:30S 22°53' W 043°12'0 0.0
2018-Feb-18 03:00S 22°53' W 043°12'0 0.0
2018-Feb-18 02:30S 22°53' W 043°12'0 0.0
2018-Feb-18 02:00S 22°53' W 043°12'0 0.0
2018-Feb-18 01:30S 22°53' W 043°12'0 0.0
2018-Feb-18 01:00S 22°53' W 043°12'0 0.0
2018-Feb-18 00:30S 22°53' W 043°12'0 0.0
2018-Feb-18 00:00S 22°53' W 043°12'0 0.0
2018-Feb-17 23:30S 22°53' W 043°12'0 0.0
2018-Feb-17 23:00S 22°53' W 043°12'0 0.0
2018-Feb-17 22:30S 22°53' W 043°12'0 0.0
2018-Feb-17 22:00S 22°53' W 043°12'0 0.0
2018-Feb-17 21:30S 22°53' W 043°12'0 0.0
2018-Feb-17 21:00S 22°53' W 043°12'0 0.0
2018-Feb-17 20:30S 22°53' W 043°12'0 0.0
2018-Feb-17 20:00S 22°53' W 043°12'0 0.0
2018-Feb-17 19:30S 22°53' W 043°12'0 0.0
2018-Feb-17 19:00S 22°53' W 043°12'0 0.0
2018-Feb-17 18:30S 22°53' W 043°12'0 0.0
2018-Feb-17 18:00S 22°53' W 043°12'0 0.0
2018-Feb-17 17:30S 22°53' W 043°12'0 0.0
2018-Feb-17 17:00S 22°53' W 043°12'0 0.0
2018-Feb-17 16:30S 22°53' W 043°12'0 0.0
2018-Feb-17 16:00S 22°53' W 043°12'0 0.0
2018-Feb-17 15:30S 22°53' W 043°12'0 0.0
2018-Feb-17 15:00S 22°53' W 043°12'0 0.0
2018-Feb-17 14:30S 22°53' W 043°12'0 0.0
2018-Feb-17 14:00S 22°53' W 043°12'0 0.0
2018-Feb-17 13:30S 22°53' W 043°12'0 0.0
2018-Feb-17 13:00S 22°53' W 043°12'0 0.0
2018-Feb-17 12:30S 22°53' W 043°12'0 0.0
2018-Feb-17 12:00S 22°53' W 043°12'0 0.0
2018-Feb-17 11:30S 22°53' W 043°12'0 0.0
2018-Feb-17 11:00S 22°53' W 043°12'0 0.0
2018-Feb-17 10:30S 22°53' W 043°12'0 0.0
2018-Feb-17 10:01S 22°53' W 043°12'0 0.7
2018-Feb-17 09:31S 22°53' W 043°12'2 4.9
2018-Feb-17 09:01S 22°53' W 043°10'611.0
2018-Feb-17 08:30S 22°59' W 043°09'4 7.8
2018-Feb-17 08:01S 23°03' W 043°10'5 9.8
2018-Feb-17 07:30S 23°07' W 043°13'815.3
2018-Feb-17 07:00S 23°10' W 043°20'816.5
2018-Feb-17 06:30S 23°14' W 043°28'816.3
2018-Feb-17 06:00S 23°18' W 043°36'916.8
2018-Feb-17 05:27S 23°22' W 043°45'1516.9
2018-Feb-17 04:34S 23°29' W 043°59'13615.6
2018-Feb-16 19:49S 24°11' W 046°21'516.4
2018-Feb-16 19:30S 24°06' W 046°23'713.4
2018-Feb-16 19:00S 24°00' W 046°20'3 6.5
2018-Feb-16 18:30S 23°58' W 046°18'3 6.8
2018-Feb-16 18:00S 23°56' W 046°20'1 1.8
2018-Feb-16 17:18S 23°55' W 046°21'0 0.0
2018-Feb-16 17:00S 23°55' W 046°21'0 0.0
2018-Feb-16 16:12S 23°55' W 046°21'0 0.0
2018-Feb-16 16:00S 23°55' W 046°21'0 0.0
2018-Feb-16 15:24S 23°55' W 046°21'0 0.0
2018-Feb-16 15:00S 23°55' W 046°21'0 0.0
2018-Feb-16 14:30S 23°55' W 046°21'0 0.0
2018-Feb-16 14:00S 23°55' W 046°21'0 0.0
2018-Feb-16 13:06S 23°55' W 046°21'0 0.0
2018-Feb-16 12:54S 23°55' W 046°21'0 0.0
2018-Feb-16 12:30S 23°55' W 046°21'0 0.0
2018-Feb-16 11:54S 23°55' W 046°21'0 0.0
2018-Feb-16 11:24S 23°55' W 046°21'0 0.0
2018-Feb-16 11:00S 23°55' W 046°21'0 0.0
2018-Feb-16 10:30S 23°55' W 046°21'0 0.0
2018-Feb-16 10:00S 23°55' W 046°21'0 0.0
2018-Feb-16 09:30S 23°55' W 046°21'0 0.0
2018-Feb-16 08:57S 23°55' W 046°21'0 0.0
2018-Feb-16 08:24S 23°55' W 046°21'0 0.0
2018-Feb-16 08:00S 23°55' W 046°21'0 0.0
2018-Feb-16 07:30S 23°55' W 046°21'0 0.0
2018-Feb-16 06:54S 23°55' W 046°21'0 0.0
2018-Feb-16 06:30S 23°55' W 046°21'0 0.0
2018-Feb-16 06:00S 23°55' W 046°21'0 0.0
2018-Feb-16 05:30S 23°55' W 046°21'0 0.0
2018-Feb-16 04:54S 23°55' W 046°21'0 0.0
2018-Feb-16 04:24S 23°55' W 046°21'0 0.0
2018-Feb-16 03:42S 23°55' W 046°21'0 0.0
2018-Feb-16 03:24S 23°55' W 046°21'0 0.0
2018-Feb-16 03:00S 23°55' W 046°21'0 0.0
2018-Feb-16 02:27S 23°55' W 046°21'0 0.0
2018-Feb-16 01:51S 23°55' W 046°21'0 0.0
2018-Feb-16 01:30S 23°55' W 046°21'0 0.0
2018-Feb-16 01:00S 23°55' W 046°21'0 0.0
2018-Feb-16 00:18S 23°55' W 046°21'0 0.0
2018-Feb-15 22:36S 23°55' W 046°21'0 0.0
2018-Feb-15 22:06S 23°55' W 046°21'0 0.0
2018-Feb-15 21:54S 23°55' W 046°21'0 0.0
2018-Feb-15 21:18S 23°55' W 046°21'0 0.0
2018-Feb-15 20:36S 23°55' W 046°21'0 0.0
2018-Feb-15 20:30S 23°55' W 046°21'0 0.0
2018-Feb-15 20:00S 23°55' W 046°21'0 0.0
2018-Feb-15 19:27S 23°55' W 046°21'0 0.0
2018-Feb-15 18:54S 23°55' W 046°21'0 0.0
2018-Feb-15 18:27S 23°55' W 046°21'0 0.0
2018-Feb-15 18:00S 23°55' W 046°21'0 0.0
2018-Feb-15 17:30S 23°55' W 046°21'0 0.0
2018-Feb-15 17:00S 23°55' W 046°21'0 0.0
2018-Feb-15 16:30S 23°55' W 046°21'0 0.0
2018-Feb-15 15:54S 23°55' W 046°21'0 0.0
2018-Feb-15 15:30S 23°55' W 046°21'0 0.0
2018-Feb-15 15:00S 23°55' W 046°21'0 0.0
2018-Feb-15 14:30S 23°55' W 046°21'0 0.0
2018-Feb-15 14:00S 23°55' W 046°21'0 0.0
2018-Feb-15 13:30S 23°55' W 046°21'0 0.0
2018-Feb-15 13:00S 23°55' W 046°21'0 0.0
2018-Feb-15 12:23S 23°55' W 046°21'0 0.7
2018-Feb-15 12:00S 23°55' W 046°21'2 3.8
2018-Feb-15 11:30S 23°56' W 046°19'4 7.2
2018-Feb-15 11:00S 23°59' W 046°17'4 7.7
2018-Feb-15 10:30S 24°01' W 046°21'5 9.3
2018-Feb-15 10:00S 24°05' W 046°23'1 2.2
2018-Feb-15 09:30S 24°06' W 046°24'3 4.3
2018-Feb-15 08:54S 24°09' W 046°24'  
Track history (hours):
 
Tides and Currents Weather Stations Pressure Air Temp Water Temp Dewpoint Dewpoint Depression Visibility Wind Speed Wind Dir Waves Ship Positions

Uasc Al Khor

Last reported at 2018-Feb-18 14:12 UTC. Time now 2018-Feb-26 00:00 UTC.
Position S 23°05' W 042°12'.

Length 300 m; draft 12.7 m.

Type: Ship (hazmat cat A). MMSI: 636016983.

Date/timePositionNaut miles runAvg speedWind from/ knotsBaromVisibWave heightAir tempDewpointWater temp
2018-Feb-18 14:12S 23°05' W 042°12'917.6
2018-Feb-18 13:41S 23°04' W 042°22'317.6
2018-Feb-18 13:30S 23°04' W 042°25'917.9
2018-Feb-18 13:00S 23°04' W 042°35'1018.1
2018-Feb-18 12:27S 23°04' W 042°46'818.8
2018-Feb-18 12:00S 23°03' W 042°55'917.7
2018-Feb-18 11:30S 23°02' W 043°04'611.7
2018-Feb-18 11:00S 22°58' W 043°09'5 9.0
2018-Feb-18 10:29S 22°53' W 043°10'2 4.2
2018-Feb-18 10:00S 22°53' W 043°12'0 0.8
2018-Feb-18 09:30S 22°53' W 043°12'0 0.0
2018-Feb-18 09:00S 22°53' W 043°12'0 0.0
2018-Feb-18 08:30S 22°53' W 043°12'0 0.0
2018-Feb-18 08:00S 22°53' W 043°12'0 0.0
2018-Feb-18 07:30S 22°53' W 043°12'0 0.0
2018-Feb-18 07:00S 22°53' W 043°12'0 0.0
2018-Feb-18 06:30S 22°53' W 043°12'0 0.0
2018-Feb-18 06:00S 22°53' W 043°12'0 0.0
2018-Feb-18 05:30S 22°53' W 043°12'0 0.0
2018-Feb-18 05:00S 22°53' W 043°12'0 0.0
2018-Feb-18 04:30S 22°53' W 043°12'0 0.0
2018-Feb-18 04:00S 22°53' W 043°12'0 0.0
2018-Feb-18 03:30S 22°53' W 043°12'0 0.0
2018-Feb-18 03:00S 22°53' W 043°12'0 0.0
2018-Feb-18 02:30S 22°53' W 043°12'0 0.0
2018-Feb-18 02:00S 22°53' W 043°12'0 0.0
2018-Feb-18 01:30S 22°53' W 043°12'0 0.0
2018-Feb-18 01:00S 22°53' W 043°12'0 0.0
2018-Feb-18 00:30S 22°53' W 043°12'0 0.0
2018-Feb-18 00:00S 22°53' W 043°12'0 0.0
2018-Feb-17 23:30S 22°53' W 043°12'0 0.0
2018-Feb-17 23:00S 22°53' W 043°12'0 0.0
2018-Feb-17 22:30S 22°53' W 043°12'0 0.0
2018-Feb-17 22:00S 22°53' W 043°12'0 0.0
2018-Feb-17 21:30S 22°53' W 043°12'0 0.0
2018-Feb-17 21:00S 22°53' W 043°12'0 0.0
2018-Feb-17 20:30S 22°53' W 043°12'0 0.0
2018-Feb-17 20:00S 22°53' W 043°12'0 0.0
2018-Feb-17 19:30S 22°53' W 043°12'0 0.0
2018-Feb-17 19:00S 22°53' W 043°12'0 0.0
2018-Feb-17 18:30S 22°53' W 043°12'0 0.0
2018-Feb-17 18:00S 22°53' W 043°12'0 0.0
2018-Feb-17 17:30S 22°53' W 043°12'0 0.0
2018-Feb-17 17:00S 22°53' W 043°12'0 0.0
2018-Feb-17 16:30S 22°53' W 043°12'0 0.0
2018-Feb-17 16:00S 22°53' W 043°12'0 0.0
2018-Feb-17 15:30S 22°53' W 043°12'0 0.0
2018-Feb-17 15:00S 22°53' W 043°12'0 0.0
2018-Feb-17 14:30S 22°53' W 043°12'0 0.0
2018-Feb-17 14:00S 22°53' W 043°12'0 0.0
2018-Feb-17 13:30S 22°53' W 043°12'0 0.0
2018-Feb-17 13:00S 22°53' W 043°12'0 0.0
2018-Feb-17 12:30S 22°53' W 043°12'0 0.0
2018-Feb-17 12:00S 22°53' W 043°12'0 0.0
2018-Feb-17 11:30S 22°53' W 043°12'0 0.0
2018-Feb-17 11:00S 22°53' W 043°12'0 0.0
2018-Feb-17 10:30S 22°53' W 043°12'0 0.0
2018-Feb-17 10:01S 22°53' W 043°12'0 0.7
2018-Feb-17 09:31S 22°53' W 043°12'2 4.9
2018-Feb-17 09:01S 22°53' W 043°10'611.0
2018-Feb-17 08:30S 22°59' W 043°09'4 7.8
2018-Feb-17 08:01S 23°03' W 043°10'5 9.8
2018-Feb-17 07:30S 23°07' W 043°13'815.3
2018-Feb-17 07:00S 23°10' W 043°20'816.5
2018-Feb-17 06:30S 23°14' W 043°28'816.3
2018-Feb-17 06:00S 23°18' W 043°36'916.8
2018-Feb-17 05:27S 23°22' W 043°45'1516.9
2018-Feb-17 04:34S 23°29' W 043°59'13615.6
2018-Feb-16 19:49S 24°11' W 046°21'516.4
2018-Feb-16 19:30S 24°06' W 046°23'713.4
2018-Feb-16 19:00S 24°00' W 046°20'3 6.5
2018-Feb-16 18:30S 23°58' W 046°18'3 6.8
2018-Feb-16 18:00S 23°56' W 046°20'1 1.8
2018-Feb-16 17:18S 23°55' W 046°21'0 0.0
2018-Feb-16 17:00S 23°55' W 046°21'0 0.0
2018-Feb-16 16:12S 23°55' W 046°21'0 0.0
2018-Feb-16 16:00S 23°55' W 046°21'0 0.0
2018-Feb-16 15:24S 23°55' W 046°21'0 0.0
2018-Feb-16 15:00S 23°55' W 046°21'0 0.0
2018-Feb-16 14:30S 23°55' W 046°21'0 0.0
2018-Feb-16 14:00S 23°55' W 046°21'0 0.0
2018-Feb-16 13:06S 23°55' W 046°21'0 0.0
2018-Feb-16 12:54S 23°55' W 046°21'0 0.0
2018-Feb-16 12:30S 23°55' W 046°21'0 0.0
2018-Feb-16 11:54S 23°55' W 046°21'0 0.0
2018-Feb-16 11:24S 23°55' W 046°21'0 0.0
2018-Feb-16 11:00S 23°55' W 046°21'0 0.0
2018-Feb-16 10:30S 23°55' W 046°21'0 0.0
2018-Feb-16 10:00S 23°55' W 046°21'0 0.0
2018-Feb-16 09:30S 23°55' W 046°21'0 0.0
2018-Feb-16 08:57S 23°55' W 046°21'0 0.0
2018-Feb-16 08:24S 23°55' W 046°21'0 0.0
2018-Feb-16 08:00S 23°55' W 046°21'0 0.0
2018-Feb-16 07:30S 23°55' W 046°21'0 0.0
2018-Feb-16 06:54S 23°55' W 046°21'0 0.0
2018-Feb-16 06:30S 23°55' W 046°21'0 0.0
2018-Feb-16 06:00S 23°55' W 046°21'0 0.0
2018-Feb-16 05:30S 23°55' W 046°21'0 0.0
2018-Feb-16 04:54S 23°55' W 046°21'0 0.0
2018-Feb-16 04:24S 23°55' W 046°21'0 0.0
2018-Feb-16 03:42S 23°55' W 046°21'0 0.0
2018-Feb-16 03:24S 23°55' W 046°21'0 0.0
2018-Feb-16 03:00S 23°55' W 046°21'0 0.0
2018-Feb-16 02:27S 23°55' W 046°21'0 0.0
2018-Feb-16 01:51S 23°55' W 046°21'0 0.0
2018-Feb-16 01:30S 23°55' W 046°21'0 0.0
2018-Feb-16 01:00S 23°55' W 046°21'0 0.0
2018-Feb-16 00:18S 23°55' W 046°21'0 0.0
2018-Feb-15 22:36S 23°55' W 046°21'0 0.0
2018-Feb-15 22:06S 23°55' W 046°21'0 0.0
2018-Feb-15 21:54S 23°55' W 046°21'0 0.0
2018-Feb-15 21:18S 23°55' W 046°21'0 0.0
2018-Feb-15 20:36S 23°55' W 046°21'0 0.0
2018-Feb-15 20:30S 23°55' W 046°21'0 0.0
2018-Feb-15 20:00S 23°55' W 046°21'0 0.0
2018-Feb-15 19:27S 23°55' W 046°21'0 0.0
2018-Feb-15 18:54S 23°55' W 046°21'0 0.0
2018-Feb-15 18:27S 23°55' W 046°21'0 0.0
2018-Feb-15 18:00S 23°55' W 046°21'0 0.0
2018-Feb-15 17:30S 23°55' W 046°21'0 0.0
2018-Feb-15 17:00S 23°55' W 046°21'0 0.0
2018-Feb-15 16:30S 23°55' W 046°21'0 0.0
2018-Feb-15 15:54S 23°55' W 046°21'0 0.0
2018-Feb-15 15:30S 23°55' W 046°21'0 0.0
2018-Feb-15 15:00S 23°55' W 046°21'0 0.0
2018-Feb-15 14:30S 23°55' W 046°21'0 0.0
2018-Feb-15 14:00S 23°55' W 046°21'0 0.0
2018-Feb-15 13:30S 23°55' W 046°21'0 0.0
2018-Feb-15 13:00S 23°55' W 046°21'0 0.0
2018-Feb-15 12:23S 23°55' W 046°21'0 0.7
2018-Feb-15 12:00S 23°55' W 046°21'2 3.8
2018-Feb-15 11:30S 23°56' W 046°19'4 7.2
2018-Feb-15 11:00S 23°59' W 046°17'4 7.7
2018-Feb-15 10:30S 24°01' W 046°21'5 9.3
2018-Feb-15 10:00S 24°05' W 046°23'1 2.2
2018-Feb-15 09:30S 24°06' W 046°24'3 4.3
2018-Feb-15 08:54S 24°09' W 046°24'  

Dump ship's entire track history